Aeroporto :
LOGIN :

Iscrizione | Disclaimer

   EN    FR    IT 

 










Sommario :    VFR   VFR Marginale   IFR   IFR Intensivo   IFR Molto Intensivo
Visibilità : 
Base nubi : 
>= 8 km
>= 3000ft
5 / 8 km
1000 / 3000 ft
1500m / 5 km
500 / 1000 ft
800 / 1500m
200 / 500 ft
< 800m
< 200 ft
Simboli :   Temporali  Nebbia  Neve Forte  Precipitazioni Forti  Vento > 20 kt
SIGMETs :   Varie  Temporali  Ghiacco  Turbolenza  Onda orograficha  Ceneri Vulcaniche






- Altitudine del aeroporto : 160 ft
- Codice IATA : FMO


EDDG - Münster Osnabrück Int.

ULTIMO METAR :
  • 142120Z 07004KT 360V120 CAVOK 05/01 Q1004 NOSIG

METARs OBSOLETI :
  • 142050Z 07004KT 360V120 CAVOK 05/01 Q1005 NOSIG
  • 142020Z 08005KT 360V140 CAVOK 05/01 Q1005 NOSIG
  • 141950Z 08005KT 020V130 CAVOK 05/01 Q1005 NOSIG
  • 141920Z 08004KT 010V140 CAVOK 05/01 Q1005 NOSIG
  • 141850Z 08004KT 030V140 CAVOK 06/02 Q1005 NOSIG
  • 141820Z 08004KT 020V160 CAVOK 06/02 Q1005 NOSIG

TAF TAF EDDG
Valido dal 14 a 18 ore il 15 a 18 ore UTC


141700Z 1418/1518 07007KT CAVOK
TEMPO 1502/1512 BKN012
PROB30
TEMPO 1503/1508 BKN007
BECMG 1515/1518 VRB03KT



MetMap, La meteo Aeronautica in un colpo d'occhio ! - Copyright ORBIFLY Dicembre 2007 - Disclaimer

ORBIFLY MET'MAP TEAM :

Programmazione e sviluppo : Alexandra Zaïnal
Concezione e sviluppo : Baudouin d'Aumeries
Co-Programmazione e sviluppo : Marc-Olivier Méhu
Supporto tecnico e logistico : Manuel Goepfert
Aiuto per la traduzione : Arnaldo La Scala

Contatto : metmap@orbifly.com




FONTI E CREDITI :

   NOAA